createdAt,value
2019-05-19T00:02:28.286Z,15.80
2019-05-19T00:04:56.817Z,15.70
2019-05-19T00:07:25.377Z,15.70
2019-05-19T00:09:53.912Z,15.70
2019-05-19T00:12:22.724Z,15.70
2019-05-19T00:14:51.189Z,15.60
2019-05-19T00:17:20.008Z,15.60
2019-05-19T00:19:48.910Z,15.50
2019-05-19T00:22:17.525Z,15.50
2019-05-19T00:24:46.144Z,15.50
2019-05-19T00:27:14.601Z,15.50
2019-05-19T00:29:43.084Z,15.40
2019-05-19T00:32:11.617Z,15.50
2019-05-19T00:34:40.180Z,15.40
2019-05-19T00:37:08.642Z,15.40
2019-05-19T00:39:37.196Z,15.40
2019-05-19T00:42:05.660Z,15.40
2019-05-19T00:44:34.224Z,15.40
2019-05-19T00:47:03.206Z,15.30
2019-05-19T00:49:40.941Z,15.30
2019-05-19T00:52:02.102Z,15.30
2019-05-19T00:54:30.635Z,15.30
2019-05-19T00:56:59.828Z,15.30
2019-05-19T00:59:28.728Z,15.30
2019-05-19T01:01:57.182Z,15.30
2019-05-19T01:04:26.157Z,15.30
2019-05-19T01:06:54.716Z,15.30
2019-05-19T01:09:23.248Z,15.30
2019-05-19T01:11:52.108Z,15.30
2019-05-19T01:14:20.564Z,15.30
2019-05-19T01:16:49.457Z,15.30
2019-05-19T01:19:17.944Z,15.30
2019-05-19T01:21:46.845Z,15.30
2019-05-19T01:24:15.468Z,15.30
2019-05-19T01:26:44.232Z,15.30
2019-05-19T01:29:13.125Z,15.30
2019-05-19T01:31:41.724Z,15.30
2019-05-19T01:34:10.284Z,15.30
2019-05-19T01:36:38.820Z,15.30
2019-05-19T01:39:07.868Z,15.20
2019-05-19T01:41:36.398Z,15.20
2019-05-19T01:44:05.091Z,15.20
2019-05-19T01:46:33.625Z,15.20
2019-05-19T01:49:02.164Z,15.20
2019-05-19T01:51:30.993Z,15.20
2019-05-19T01:53:59.525Z,15.20
2019-05-19T01:56:28.056Z,15.20
2019-05-19T01:58:56.612Z,15.20
2019-05-19T02:01:25.218Z,15.10
2019-05-19T02:03:53.772Z,15.10
2019-05-19T02:06:22.302Z,15.00
2019-05-19T02:08:50.856Z,15.00
2019-05-19T02:11:19.509Z,14.90
2019-05-19T02:13:47.993Z,14.90
2019-05-19T02:16:16.549Z,14.80
2019-05-19T02:18:45.112Z,14.80
2019-05-19T02:21:13.672Z,14.80
2019-05-19T02:23:42.276Z,14.80
2019-05-19T02:26:10.783Z,14.80
2019-05-19T02:28:39.652Z,14.80
2019-05-19T02:31:08.222Z,14.70
2019-05-19T02:33:36.744Z,14.70
2019-05-19T02:36:05.369Z,14.70
2019-05-19T02:38:33.968Z,14.60
2019-05-19T02:41:04.633Z,14.60
2019-05-19T02:43:34.733Z,14.60
2019-05-19T02:46:04.911Z,14.50
2019-05-19T02:48:35.304Z,14.50
2019-05-19T02:51:05.305Z,14.50
2019-05-19T02:53:34.764Z,14.40
2019-05-19T02:56:04.395Z,14.40
2019-05-19T02:58:34.282Z,14.30
2019-05-19T03:01:02.881Z,14.30
2019-05-19T03:03:31.803Z,14.30
2019-05-19T03:06:00.381Z,14.20
2019-05-19T03:08:28.890Z,14.20
2019-05-19T03:10:57.429Z,14.10
2019-05-19T03:13:26.052Z,14.10
2019-05-19T03:15:54.655Z,14.00
2019-05-19T03:18:23.222Z,14.00
2019-05-19T03:21:09.444Z,14.00
2019-05-19T03:23:21.955Z,14.00
2019-05-19T03:25:50.797Z,14.00
2019-05-19T03:28:19.372Z,13.90
2019-05-19T03:30:49.545Z,13.90
2019-05-19T03:33:22.546Z,13.80
2019-05-19T03:35:51.162Z,13.80
2019-05-19T03:38:19.717Z,13.80
2019-05-19T03:40:48.249Z,13.70
2019-05-19T03:43:16.815Z,13.70
2019-05-19T03:45:45.514Z,13.70
2019-05-19T03:48:14.072Z,13.70
2019-05-19T03:50:42.683Z,13.70
2019-05-19T03:53:11.239Z,13.60
2019-05-19T03:55:39.772Z,13.60
2019-05-19T03:58:08.332Z,13.60
2019-05-19T04:00:37.140Z,13.60
2019-05-19T04:03:05.676Z,13.60
2019-05-19T04:05:34.239Z,13.60
2019-05-19T04:08:03.174Z,13.60
2019-05-19T04:10:31.732Z,13.60
2019-05-19T04:13:00.189Z,13.60
2019-05-19T04:15:28.760Z,13.60
2019-05-19T04:17:57.287Z,13.60
2019-05-19T04:20:25.916Z,13.70
2019-05-19T04:22:54.456Z,13.60
2019-05-19T04:25:23.089Z,13.70
2019-05-19T04:27:51.620Z,13.60
2019-05-19T04:30:20.341Z,13.70
2019-05-19T04:32:48.869Z,13.60
2019-05-19T04:35:17.423Z,13.60
2019-05-19T04:37:45.989Z,13.60
2019-05-19T04:40:15.581Z,13.60
2019-05-19T04:42:44.041Z,13.60
2019-05-19T04:45:12.740Z,13.60
2019-05-19T04:47:41.635Z,13.60
2019-05-19T04:50:11.261Z,13.60
2019-05-19T04:52:39.803Z,13.60
2019-05-19T04:55:08.788Z,13.60
2019-05-19T04:57:37.391Z,13.60
2019-05-19T05:00:08.355Z,13.50
2019-05-19T05:02:36.893Z,13.50
2019-05-19T05:05:06.389Z,13.60
2019-05-19T05:07:34.920Z,13.50
2019-05-19T05:10:03.553Z,13.60
2019-05-19T05:12:32.097Z,13.70
2019-05-19T05:15:00.653Z,13.70
2019-05-19T05:17:29.189Z,13.70
2019-05-19T05:19:57.748Z,13.80
2019-05-19T05:22:26.281Z,13.90
2019-05-19T05:24:55.226Z,13.90
2019-05-19T05:27:23.752Z,13.90
2019-05-19T05:29:52.237Z,13.90
2019-05-19T05:32:20.772Z,14.00
2019-05-19T05:34:49.654Z,14.00
2019-05-19T05:37:18.248Z,14.10
2019-05-19T05:39:47.228Z,14.10
2019-05-19T05:42:15.827Z,14.20
2019-05-19T05:44:44.383Z,14.20
2019-05-19T05:47:12.908Z,14.30
2019-05-19T05:49:41.396Z,14.30
2019-05-19T05:52:09.860Z,14.40
2019-05-19T05:54:38.484Z,14.40
2019-05-19T05:57:06.935Z,14.50
2019-05-19T05:59:35.501Z,14.50
2019-05-19T06:02:04.172Z,14.60
2019-05-19T06:04:32.733Z,14.70
2019-05-19T06:07:01.194Z,14.80
2019-05-19T06:09:29.836Z,14.80
2019-05-19T06:11:58.362Z,14.90
2019-05-19T06:14:26.924Z,14.90
2019-05-19T06:16:55.472Z,15.00
2019-05-19T06:19:24.016Z,15.10
2019-05-19T06:21:52.552Z,15.20
2019-05-19T06:24:21.112Z,15.20
2019-05-19T06:26:49.637Z,15.20
2019-05-19T06:29:18.101Z,15.30
2019-05-19T06:31:46.668Z,15.40
2019-05-19T06:34:15.561Z,15.50
2019-05-19T06:36:44.129Z,15.60
2019-05-19T06:39:13.043Z,15.60
2019-05-19T06:41:41.588Z,15.70
2019-05-19T06:44:10.201Z,15.80
2019-05-19T06:46:39.094Z,15.90
2019-05-19T06:49:07.620Z,15.90
2019-05-19T06:51:36.107Z,16.00
2019-05-19T06:54:04.712Z,16.10
2019-05-19T06:56:33.196Z,16.10
2019-05-19T06:59:01.697Z,16.10
2019-05-19T07:01:30.224Z,16.20
2019-05-19T07:03:58.684Z,16.30
2019-05-19T07:06:27.172Z,16.40
2019-05-19T07:08:55.708Z,16.40
2019-05-19T07:11:24.213Z,16.40
2019-05-19T07:13:52.748Z,16.50
2019-05-19T07:16:21.234Z,16.60
2019-05-19T07:18:49.704Z,16.70
2019-05-19T07:21:18.339Z,16.70
2019-05-19T07:23:46.868Z,16.80
2019-05-19T07:26:15.436Z,16.80
2019-05-19T07:28:43.974Z,16.80
2019-05-19T07:31:12.536Z,16.90
2019-05-19T07:33:41.371Z,16.90
2019-05-19T07:36:10.101Z,17.00
2019-05-19T07:38:38.639Z,17.10
2019-05-19T07:41:07.531Z,17.30
2019-05-19T07:43:36.066Z,17.40
2019-05-19T07:46:04.701Z,17.50
2019-05-19T07:48:33.165Z,17.60
2019-05-19T07:51:01.653Z,17.60
2019-05-19T07:53:42.175Z,17.70
2019-05-19T07:56:00.332Z,17.80
2019-05-19T07:58:28.801Z,17.80
2019-05-19T08:00:57.372Z,17.80
2019-05-19T08:03:25.912Z,17.90
2019-05-19T08:05:57.018Z,18.00
2019-05-19T08:08:24.736Z,18.00
2019-05-19T08:10:53.605Z,18.10
2019-05-19T08:13:22.208Z,18.20
2019-05-19T08:15:50.699Z,18.20
2019-05-19T08:18:19.665Z,18.30
2019-05-19T08:20:48.224Z,18.30
2019-05-19T08:23:17.037Z,18.40
2019-05-19T08:25:45.537Z,18.40
2019-05-19T08:28:14.265Z,18.50
2019-05-19T08:30:42.853Z,18.60
2019-05-19T08:33:11.435Z,18.70
2019-05-19T08:35:39.992Z,18.80
2019-05-19T08:38:08.460Z,18.90
2019-05-19T08:40:37.046Z,18.90
2019-05-19T08:43:05.641Z,19.00
2019-05-19T08:45:34.277Z,19.10
2019-05-19T08:48:02.822Z,19.20
2019-05-19T08:50:31.397Z,19.30
2019-05-19T08:52:59.933Z,19.40
2019-05-19T08:55:30.030Z,19.60
2019-05-19T08:57:58.617Z,19.70
2019-05-19T09:00:27.229Z,19.90
2019-05-19T09:02:55.869Z,20.00
2019-05-19T09:05:24.741Z,20.10
2019-05-19T09:07:53.241Z,20.20
2019-05-19T09:10:21.918Z,20.20
2019-05-19T09:12:50.527Z,20.30
2019-05-19T09:15:19.444Z,20.40
2019-05-19T09:17:47.932Z,20.40
2019-05-19T09:20:16.737Z,20.50
2019-05-19T09:22:45.307Z,20.70
2019-05-19T09:25:13.911Z,20.80
2019-05-19T09:27:42.672Z,20.90
2019-05-19T09:30:11.575Z,21.00
2019-05-19T09:32:40.064Z,21.10
2019-05-19T09:35:09.047Z,21.10
2019-05-19T09:37:41.394Z,21.10
2019-05-19T09:40:10.481Z,21.10
2019-05-19T09:42:39.063Z,21.20
2019-05-19T09:45:09.846Z,21.20
2019-05-19T09:47:38.566Z,21.20
2019-05-19T09:50:07.754Z,21.30
2019-05-19T09:52:36.476Z,21.40
2019-05-19T09:55:05.933Z,21.50
2019-05-19T09:57:34.567Z,21.50
2019-05-19T10:00:04.657Z,21.70
2019-05-19T10:02:33.513Z,21.90
2019-05-19T10:05:02.403Z,22.00
2019-05-19T10:07:30.970Z,22.20
2019-05-19T10:10:01.785Z,22.50
2019-05-19T10:12:30.671Z,22.70
2019-05-19T10:14:59.877Z,23.00
2019-05-19T10:17:28.731Z,23.10
2019-05-19T10:19:57.411Z,23.40
2019-05-19T10:22:26.366Z,23.70
2019-05-19T10:25:19.852Z,23.70
2019-05-19T10:27:25.275Z,23.70
2019-05-19T10:29:53.808Z,23.70
2019-05-19T10:32:22.416Z,23.90
2019-05-19T10:34:50.910Z,24.20
2019-05-19T10:37:19.581Z,24.40
2019-05-19T10:39:48.292Z,24.60
2019-05-19T10:42:17.195Z,25.10
2019-05-19T10:44:45.824Z,25.50
2019-05-19T10:47:14.295Z,25.90
2019-05-19T10:49:43.187Z,25.80
2019-05-19T10:52:12.057Z,26.10
2019-05-19T10:54:40.820Z,26.50
2019-05-19T10:57:09.352Z,26.80
2019-05-19T10:59:37.879Z,27.00
2019-05-19T11:02:15.716Z,27.50
2019-05-19T11:10:55.281Z,27.60
2019-05-19T11:13:23.846Z,27.80
2019-05-19T11:15:52.396Z,27.80
2019-05-19T11:18:21.338Z,27.90
2019-05-19T11:20:50.145Z,28.20
2019-05-19T11:23:18.695Z,28.20
2019-05-19T11:25:51.480Z,28.50
2019-05-19T11:28:17.530Z,28.70
2019-05-19T11:30:46.507Z,29.30
2019-05-19T11:33:15.046Z,30.00
2019-05-19T11:35:43.611Z,30.60
2019-05-19T11:38:12.140Z,31.20
2019-05-19T11:40:41.040Z,31.40
2019-05-19T11:43:09.600Z,31.20
2019-05-19T11:45:38.061Z,30.70
2019-05-19T11:48:06.896Z,30.80
2019-05-19T11:50:35.499Z,31.30
2019-05-19T11:53:04.135Z,32.10
2019-05-19T11:55:32.729Z,32.70
2019-05-19T11:58:01.212Z,33.60
2019-05-19T12:00:29.745Z,34.50
2019-05-19T12:02:58.304Z,34.70
2019-05-19T12:05:26.967Z,35.80
2019-05-19T12:07:55.480Z,36.70
2019-05-19T12:10:24.050Z,37.50
2019-05-19T12:12:52.584Z,38.40
2019-05-19T12:15:21.350Z,39.70
2019-05-19T12:17:50.208Z,41.30
2019-05-19T12:20:18.829Z,42.60
2019-05-19T12:22:47.605Z,42.70
2019-05-19T12:25:16.505Z,44.00
2019-05-19T12:27:45.364Z,42.10
2019-05-19T12:30:21.014Z,42.20
2019-05-19T12:32:49.933Z,43.50
2019-05-19T12:35:18.698Z,44.90
2019-05-19T12:37:47.196Z,45.10
2019-05-19T12:40:16.066Z,45.40
2019-05-19T12:42:44.624Z,44.00
2019-05-19T12:45:13.501Z,42.30
2019-05-19T12:47:42.056Z,40.60
2019-05-19T12:50:11.333Z,38.80
2019-05-19T12:52:39.896Z,37.50
2019-05-19T12:55:08.579Z,35.70
2019-05-19T12:57:37.136Z,33.90
2019-05-19T13:00:05.912Z,32.60
2019-05-19T13:02:34.458Z,31.60
2019-05-19T13:05:05.403Z,30.90
2019-05-19T13:07:33.473Z,30.10
2019-05-19T13:10:02.058Z,29.70
2019-05-19T13:12:30.556Z,29.30
2019-05-19T13:14:59.120Z,29.00
2019-05-19T13:17:27.651Z,28.70
2019-05-19T13:19:56.205Z,28.50
2019-05-19T13:22:25.084Z,29.30
2019-05-19T13:24:53.953Z,31.10
2019-05-19T13:27:22.851Z,31.90
2019-05-19T13:29:51.736Z,31.30
2019-05-19T13:32:20.299Z,32.80
2019-05-19T13:34:48.838Z,35.10
2019-05-19T13:37:17.800Z,37.10
2019-05-19T13:39:46.323Z,38.70
2019-05-19T13:42:14.793Z,39.20
2019-05-19T13:44:43.339Z,40.40
2019-05-19T13:47:11.805Z,40.60
2019-05-19T13:49:40.364Z,41.10
2019-05-19T13:52:08.900Z,40.20
2019-05-19T13:54:37.783Z,40.00
2019-05-19T13:57:12.115Z,39.30
2019-05-19T13:59:36.676Z,38.40
2019-05-19T14:02:05.199Z,37.80
2019-05-19T14:04:33.751Z,36.70
2019-05-19T14:07:02.554Z,35.10
2019-05-19T14:09:31.076Z,34.50
2019-05-19T14:12:00.014Z,33.70
2019-05-19T14:14:28.481Z,32.90
2019-05-19T14:16:57.031Z,32.20
2019-05-19T14:19:25.600Z,31.70
2019-05-19T14:21:54.136Z,31.20
2019-05-19T14:24:22.592Z,30.70
2019-05-19T14:26:51.221Z,30.30
2019-05-19T14:29:19.828Z,30.00
2019-05-19T14:31:48.456Z,30.10
2019-05-19T14:34:16.997Z,30.10
2019-05-19T14:36:45.856Z,30.10
2019-05-19T14:39:14.360Z,30.20
2019-05-19T14:41:44.528Z,30.30
2019-05-19T14:44:13.101Z,30.30
2019-05-19T14:46:41.624Z,30.30
2019-05-19T14:49:10.291Z,30.10
2019-05-19T14:51:48.412Z,30.00
2019-05-19T14:57:06.105Z,29.90
2019-05-19T14:59:34.956Z,29.80
2019-05-19T15:02:03.495Z,29.70
2019-05-19T15:04:32.461Z,29.70
2019-05-19T15:07:00.920Z,29.70
2019-05-19T15:09:29.476Z,29.70
2019-05-19T15:11:58.297Z,29.60
2019-05-19T15:14:26.853Z,29.60
2019-05-19T15:16:58.051Z,29.50
2019-05-19T15:19:26.927Z,29.40
2019-05-19T15:21:55.765Z,29.30
2019-05-19T15:24:24.333Z,29.20
2019-05-19T15:26:52.797Z,29.20
2019-05-19T15:29:21.781Z,28.90
2019-05-19T15:31:50.320Z,28.50
2019-05-19T15:34:18.914Z,28.10
2019-05-19T15:36:47.445Z,27.90
2019-05-19T15:39:16.297Z,27.80
2019-05-19T15:41:44.888Z,27.70
2019-05-19T15:44:13.469Z,27.60
2019-05-19T15:46:42.033Z,27.50
2019-05-19T15:49:10.577Z,27.40
2019-05-19T15:51:39.522Z,27.30
2019-05-19T15:54:08.065Z,27.30
2019-05-19T15:56:36.637Z,27.30
2019-05-19T15:59:05.244Z,27.20
2019-05-19T16:01:33.778Z,27.20
2019-05-19T16:04:02.470Z,27.10
2019-05-19T16:06:31.016Z,27.10
2019-05-19T16:08:59.578Z,27.10
2019-05-19T16:11:28.110Z,27.10
2019-05-19T16:13:56.664Z,27.00
2019-05-19T16:16:25.203Z,26.90
2019-05-19T16:18:53.761Z,26.80
2019-05-19T16:21:22.628Z,26.60
2019-05-19T16:23:51.118Z,26.50
2019-05-19T16:26:19.653Z,26.50
2019-05-19T16:28:48.216Z,26.40
2019-05-19T16:31:17.060Z,26.30
2019-05-19T16:33:45.549Z,26.20
2019-05-19T16:36:14.108Z,26.10
2019-05-19T16:38:42.916Z,26.10
2019-05-19T16:41:11.382Z,25.90
2019-05-19T16:43:40.292Z,25.90
2019-05-19T16:46:08.747Z,25.70
2019-05-19T16:48:37.601Z,25.60
2019-05-19T16:51:06.102Z,25.60
2019-05-19T16:53:34.590Z,25.70
2019-05-19T16:56:03.195Z,25.70
2019-05-19T16:58:44.484Z,25.60
2019-05-19T17:01:02.232Z,25.60
2019-05-19T17:03:30.693Z,25.60
2019-05-19T17:05:59.247Z,25.40
2019-05-19T17:08:27.847Z,25.30
2019-05-19T17:10:56.329Z,25.20
2019-05-19T17:13:24.855Z,24.90
2019-05-19T17:15:53.340Z,24.90
2019-05-19T17:18:22.064Z,24.80
2019-05-19T17:20:50.626Z,24.80
2019-05-19T17:23:19.156Z,24.80
2019-05-19T17:25:48.060Z,24.80
2019-05-19T17:28:16.592Z,24.80
2019-05-19T17:30:45.133Z,24.70
2019-05-19T17:33:13.691Z,24.70
2019-05-19T17:35:42.497Z,24.60
2019-05-19T17:38:11.628Z,24.60
2019-05-19T17:40:44.480Z,24.60
2019-05-19T17:43:12.977Z,24.60
2019-05-19T17:45:41.512Z,24.60
2019-05-19T17:48:24.142Z,24.60
2019-05-19T17:50:40.415Z,24.50
2019-05-19T17:53:09.449Z,24.50
2019-05-19T17:55:38.137Z,24.40
2019-05-19T17:58:06.765Z,24.30
2019-05-19T18:00:41.203Z,24.10
2019-05-19T18:03:10.305Z,24.00
2019-05-19T18:05:39.094Z,23.90
2019-05-19T18:08:07.813Z,23.80
2019-05-19T18:10:36.704Z,23.60
2019-05-19T18:13:05.156Z,23.50
2019-05-19T18:15:33.647Z,23.30
2019-05-19T18:18:02.180Z,23.10
2019-05-19T18:20:30.736Z,22.90
2019-05-19T18:22:59.200Z,22.80
2019-05-19T18:25:27.850Z,22.60
2019-05-19T18:27:56.365Z,22.50
2019-05-19T18:30:24.905Z,22.30
2019-05-19T18:32:53.466Z,22.20
2019-05-19T18:35:22.023Z,22.10
2019-05-19T18:37:50.625Z,22.10
2019-05-19T18:40:19.632Z,22.00
2019-05-19T18:42:48.120Z,21.90
2019-05-19T18:45:16.787Z,21.90
2019-05-19T18:47:45.560Z,21.80
2019-05-19T18:50:14.235Z,21.70
2019-05-19T18:52:42.859Z,21.60
2019-05-19T18:55:11.455Z,21.50
2019-05-19T18:57:40.016Z,21.50
2019-05-19T19:00:09.086Z,21.40
2019-05-19T19:02:37.756Z,21.30
2019-05-19T19:05:07.130Z,21.30
2019-05-19T19:07:49.392Z,21.20
2019-05-19T19:10:18.067Z,21.10
2019-05-19T19:12:47.475Z,21.00
2019-05-19T19:15:16.145Z,21.00
2019-05-19T19:17:45.057Z,20.90
2019-05-19T19:20:14.373Z,20.80
2019-05-19T19:22:42.908Z,20.80
2019-05-19T19:25:11.676Z,20.80
2019-05-19T19:27:55.020Z,20.80
2019-05-19T19:30:26.370Z,20.70
2019-05-19T19:32:53.764Z,20.60
2019-05-19T19:35:22.339Z,20.50
2019-05-19T19:37:50.872Z,20.50
2019-05-19T19:40:30.396Z,20.40
2019-05-19T19:43:00.507Z,20.30
2019-05-19T19:45:29.212Z,20.30
2019-05-19T19:47:58.175Z,20.20
2019-05-19T19:50:26.781Z,20.20
2019-05-19T19:52:55.413Z,20.10
2019-05-19T19:55:23.944Z,20.00
2019-05-19T19:57:52.502Z,19.90
2019-05-19T20:00:35.989Z,19.90
2019-05-19T20:03:05.860Z,19.80
2019-05-19T20:05:34.524Z,19.80
2019-05-19T20:08:03.329Z,19.80
2019-05-19T20:10:32.105Z,19.70
2019-05-19T20:13:00.727Z,19.70
2019-05-19T20:15:29.253Z,19.60
2019-05-19T20:17:57.816Z,19.50
2019-05-19T20:20:26.654Z,19.40
2019-05-19T20:22:55.464Z,19.40
2019-05-19T20:25:23.927Z,19.40
2019-05-19T20:27:52.485Z,19.30
2019-05-19T20:30:34.668Z,19.30
2019-05-19T20:32:51.696Z,19.30
2019-05-19T20:35:20.516Z,19.20
2019-05-19T20:37:49.068Z,19.20
2019-05-19T20:40:17.937Z,19.10
2019-05-19T20:42:46.505Z,19.10
2019-05-19T20:45:15.177Z,19.00
2019-05-19T20:47:43.740Z,19.00
2019-05-19T20:50:12.912Z,18.90
2019-05-19T20:52:41.621Z,18.90
2019-05-19T20:55:10.928Z,18.80
2019-05-19T20:57:39.464Z,18.80
2019-05-19T21:00:08.724Z,18.80
2019-05-19T21:02:37.385Z,18.70
2019-05-19T21:08:09.542Z,18.70
2019-05-19T21:10:38.116Z,18.70
2019-05-19T21:13:06.960Z,18.70
2019-05-19T21:15:35.519Z,18.60
2019-05-19T21:18:04.383Z,18.60
2019-05-19T21:20:33.012Z,18.60
2019-05-19T21:23:01.473Z,18.60
2019-05-19T21:25:30.029Z,18.60
2019-05-19T21:27:58.580Z,18.60
2019-05-19T21:30:27.556Z,18.50
2019-05-19T21:32:56.092Z,18.50
2019-05-19T21:35:24.547Z,18.50
2019-05-19T21:37:53.037Z,18.50
2019-05-19T21:40:21.717Z,18.50
2019-05-19T21:42:50.303Z,18.40
2019-05-19T21:45:19.412Z,18.40
2019-05-19T21:47:47.989Z,18.40
2019-05-19T21:50:16.601Z,18.30
2019-05-19T21:52:45.529Z,18.30
2019-05-19T21:55:14.449Z,18.20
2019-05-19T21:57:43.004Z,18.20
2019-05-19T22:00:12.649Z,18.20
2019-05-19T22:02:41.215Z,18.10
2019-05-19T22:05:09.884Z,18.00
2019-05-19T22:07:42.739Z,18.00
2019-05-19T22:10:11.760Z,17.90
2019-05-19T22:12:40.320Z,17.90
2019-05-19T22:15:10.973Z,17.80
2019-05-19T22:17:39.732Z,17.80
2019-05-19T22:20:08.549Z,17.80
2019-05-19T22:22:37.109Z,17.70
2019-05-19T22:25:07.258Z,17.70
2019-05-19T22:27:36.078Z,17.60
2019-05-19T22:30:06.447Z,17.60
2019-05-19T22:32:34.982Z,17.50
2019-05-19T22:35:04.082Z,17.50
2019-05-19T22:37:32.960Z,17.50
2019-05-19T22:40:01.737Z,17.40
2019-05-19T22:42:30.260Z,17.30
2019-05-19T22:44:58.824Z,17.30
2019-05-19T22:47:27.464Z,17.30
2019-05-19T22:49:56.465Z,17.20
2019-05-19T22:52:24.994Z,17.10
2019-05-19T22:54:53.840Z,17.10
2019-05-19T22:57:22.364Z,17.10
2019-05-19T22:59:51.216Z,17.10
2019-05-19T23:02:20.322Z,17.00
2019-05-19T23:04:48.877Z,17.00
2019-05-19T23:07:17.412Z,17.00
2019-05-19T23:09:45.901Z,17.00
2019-05-19T23:12:14.428Z,17.00
2019-05-19T23:14:43.052Z,17.00
2019-05-19T23:17:11.652Z,17.00
2019-05-19T23:19:40.215Z,17.00
2019-05-19T23:22:08.812Z,17.00
2019-05-19T23:24:37.397Z,16.90
2019-05-19T23:27:05.989Z,16.90
2019-05-19T23:29:34.525Z,16.90
2019-05-19T23:32:07.066Z,16.90
2019-05-19T23:34:33.380Z,16.90
2019-05-19T23:37:01.880Z,16.90
2019-05-19T23:39:30.516Z,16.90
2019-05-19T23:41:59.043Z,16.90
2019-05-19T23:44:27.577Z,16.80
2019-05-19T23:46:56.462Z,16.80
2019-05-19T23:49:24.996Z,16.80
2019-05-19T23:51:53.548Z,16.70
2019-05-19T23:54:22.416Z,16.70
2019-05-19T23:56:50.985Z,16.60
2019-05-19T23:59:19.528Z,16.60
